createdAt,value
2019-06-10T00:02:17.707Z,100909.56
2019-06-10T00:04:47.660Z,100903.25
2019-06-10T00:07:20.981Z,100904.94
2019-06-10T00:09:51.204Z,100901.59
2019-06-10T00:12:21.183Z,100900.09
2019-06-10T00:14:51.099Z,100895.42
2019-06-10T00:17:21.486Z,100892.92
2019-06-10T00:19:51.447Z,100884.56
2019-06-10T00:22:21.639Z,100886.41
2019-06-10T00:24:52.201Z,100886.07
2019-06-10T00:27:23.579Z,100873.08
2019-06-10T00:29:53.447Z,100875.09
2019-06-10T00:32:23.310Z,100869.41
2019-06-10T00:34:53.280Z,100869.73
2019-06-10T00:37:23.518Z,100869.73
2019-06-10T00:39:53.424Z,100867.90
2019-06-10T00:42:23.752Z,100861.71
2019-06-10T00:44:54.796Z,100859.37
2019-06-10T00:47:25.123Z,100856.69
2019-06-10T00:49:55.066Z,100854.85
2019-06-10T00:52:25.371Z,100848.34
2019-06-10T00:54:55.386Z,100849.34
2019-06-10T00:57:25.324Z,100842.98
2019-06-10T00:59:55.192Z,100838.98
2019-06-10T01:02:25.584Z,100844.98
2019-06-10T01:04:55.513Z,100832.63
2019-06-10T01:07:25.403Z,100832.63
2019-06-10T01:09:55.353Z,100831.28
2019-06-10T01:12:26.248Z,100834.79
2019-06-10T01:14:56.148Z,100835.12
2019-06-10T01:17:26.008Z,100828.61
2019-06-10T01:19:57.724Z,100826.11
2019-06-10T01:22:27.969Z,100824.77
2019-06-10T01:24:58.589Z,100826.94
2019-06-10T01:27:28.584Z,100828.95
2019-06-10T01:29:58.527Z,100825.45
2019-06-10T01:32:31.040Z,100817.92
2019-06-10T01:35:01.279Z,100813.58
2019-06-10T01:37:31.231Z,100814.92
2019-06-10T01:40:01.173Z,100810.58
2019-06-10T01:42:31.244Z,100808.25
2019-06-10T01:45:01.305Z,100799.89
2019-06-10T01:47:32.411Z,100802.73
2019-06-10T01:50:02.707Z,100803.45
2019-06-10T01:52:32.595Z,100801.12
2019-06-10T01:55:03.996Z,100797.61
2019-06-10T01:57:33.893Z,100790.44
2019-06-10T02:00:09.151Z,100785.27
2019-06-10T02:02:35.921Z,100778.58
2019-06-10T02:05:08.473Z,100767.22
2019-06-10T02:07:41.010Z,100767.22
2019-06-10T02:10:15.191Z,100765.55
2019-06-10T02:12:42.991Z,100764.72
2019-06-10T02:15:15.067Z,100757.20
2019-06-10T02:17:44.790Z,100752.23
2019-06-10T02:20:16.868Z,100742.72
2019-06-10T02:22:46.473Z,100740.22
2019-06-10T02:25:16.976Z,100744.24
2019-06-10T02:27:46.840Z,100742.59
2019-06-10T02:30:28.478Z,100739.46
2019-06-10T02:32:52.142Z,100739.30
2019-06-10T02:35:32.178Z,100741.64
2019-06-10T02:37:54.022Z,100741.98
2019-06-10T02:40:31.776Z,100750.34
2019-06-10T02:42:58.164Z,100750.52
2019-06-10T02:45:33.686Z,100757.40
2019-06-10T02:48:03.905Z,100755.86
2019-06-10T02:50:58.406Z,100753.56
2019-06-10T02:53:31.223Z,100758.41
2019-06-10T02:56:04.000Z,100756.36
2019-06-10T02:58:38.425Z,100751.68
2019-06-10T03:01:05.044Z,100744.83
2019-06-10T03:03:42.924Z,100745.99
2019-06-10T03:06:08.837Z,100749.67
2019-06-10T03:08:38.794Z,100753.68
2019-06-10T03:11:08.753Z,100757.69
2019-06-10T03:13:38.607Z,100752.84
2019-06-10T03:16:17.901Z,100752.67
2019-06-10T03:18:48.136Z,100758.69
2019-06-10T03:21:18.078Z,100754.00
2019-06-10T03:24:07.137Z,100752.33
2019-06-10T03:26:37.009Z,100748.83
2019-06-10T03:29:06.951Z,100745.49
2019-06-10T03:31:41.825Z,100737.14
2019-06-10T03:34:08.615Z,100743.66
2019-06-10T03:36:38.518Z,100737.30
2019-06-10T03:39:09.266Z,100729.95
2019-06-10T03:41:39.539Z,100724.09
2019-06-10T03:44:09.395Z,100723.59
2019-06-10T03:46:39.377Z,100717.41
2019-06-10T03:49:12.468Z,100715.75
2019-06-10T03:51:42.801Z,100717.92
2019-06-10T03:54:13.264Z,100717.09
2019-06-10T03:56:43.374Z,100726.61
2019-06-10T03:59:13.612Z,100722.77
2019-06-10T04:01:43.580Z,100718.27
2019-06-10T04:04:14.724Z,100732.96
2019-06-10T04:06:45.075Z,100729.63
2019-06-10T04:09:15.014Z,100731.97
2019-06-10T04:11:44.933Z,100728.80
2019-06-10T04:14:15.032Z,100726.13
2019-06-10T04:16:44.898Z,100720.78
2019-06-10T04:19:15.837Z,100723.28
2019-06-10T04:21:45.823Z,100720.94
2019-06-10T04:24:15.728Z,100721.94
2019-06-10T04:26:45.682Z,100721.61
2019-06-10T04:29:15.666Z,100726.95
2019-06-10T04:31:45.974Z,100721.44
2019-06-10T04:34:15.849Z,100712.42
2019-06-10T04:36:45.818Z,100708.23
2019-06-10T04:39:15.628Z,100714.40
2019-06-10T04:41:45.623Z,100716.57
2019-06-10T04:44:15.685Z,100717.24
2019-06-10T04:46:45.704Z,100720.25
2019-06-10T04:49:15.645Z,100722.26
2019-06-10T04:51:45.511Z,100722.94
2019-06-10T04:54:15.486Z,100726.95
2019-06-10T04:56:46.158Z,100721.61
2019-06-10T04:59:16.525Z,100713.94
2019-06-10T05:01:46.460Z,100719.66
2019-06-10T05:04:16.746Z,100717.16
2019-06-10T05:06:46.589Z,100726.01
2019-06-10T05:09:16.550Z,100719.66
2019-06-10T05:11:47.506Z,100723.66
2019-06-10T05:14:19.338Z,100727.02
2019-06-10T05:16:49.336Z,100725.84
2019-06-10T05:19:19.818Z,100734.70
2019-06-10T05:21:52.407Z,100737.00
2019-06-10T05:24:25.180Z,100728.16
2019-06-10T05:26:54.316Z,100728.02
2019-06-10T05:29:26.845Z,100730.02
2019-06-10T05:31:56.125Z,100730.34
2019-06-10T05:34:27.193Z,100729.69
2019-06-10T05:36:57.677Z,100730.33
2019-06-10T05:39:29.206Z,100733.36
2019-06-10T05:42:00.256Z,100728.02
2019-06-10T05:44:30.216Z,100729.34
2019-06-10T05:47:00.121Z,100724.45
2019-06-10T05:49:31.221Z,100722.62
2019-06-10T05:52:02.120Z,100725.95
2019-06-10T05:54:36.218Z,100723.94
2019-06-10T05:57:12.733Z,100722.59
2019-06-10T05:59:47.091Z,100716.90
2019-06-10T06:02:22.284Z,100713.50
2019-06-10T06:04:58.095Z,100710.14
2019-06-10T06:07:43.126Z,100705.40
2019-06-10T06:10:17.073Z,100705.37
2019-06-10T06:12:49.752Z,100704.53
2019-06-10T06:15:22.205Z,100708.52
2019-06-10T06:18:07.151Z,100716.03
2019-06-10T06:20:43.619Z,100723.85
2019-06-10T06:23:17.262Z,100727.36
2019-06-10T06:29:13.018Z,100717.98
2019-06-10T06:31:52.334Z,100720.30
2019-06-10T06:34:24.205Z,100725.66
2019-06-10T06:36:56.554Z,100722.95
2019-06-10T06:39:33.418Z,100715.37
2019-06-10T06:42:09.197Z,100714.52
2019-06-10T06:44:43.532Z,100709.66
2019-06-10T06:47:46.960Z,100717.15
2019-06-10T06:50:25.318Z,100712.75
2019-06-10T06:53:25.522Z,100708.03
2019-06-10T06:55:33.731Z,100702.36
2019-06-10T06:58:05.566Z,100700.98
2019-06-10T07:01:00.282Z,100699.66
2019-06-10T07:03:19.117Z,100698.43
2019-06-10T07:06:02.449Z,100702.27
2019-06-10T07:09:03.970Z,100703.93
2019-06-10T07:11:44.748Z,100707.95
2019-06-10T07:14:17.717Z,100707.63
2019-06-10T07:17:27.913Z,100706.61
2019-06-10T07:20:14.239Z,100706.78
2019-06-10T07:25:55.356Z,100706.10
2019-06-10T07:28:38.424Z,100711.25
2019-06-10T07:31:20.822Z,100719.07
2019-06-10T07:33:46.919Z,100718.56
2019-06-10T07:36:23.614Z,100717.67
2019-06-10T07:39:09.018Z,100706.78
2019-06-10T07:41:47.531Z,100697.27
2019-06-10T07:44:26.639Z,100692.42
2019-06-10T07:47:12.818Z,100693.07
2019-06-10T07:49:49.270Z,100693.07
2019-06-10T07:52:23.668Z,100699.41
2019-06-10T07:55:13.023Z,100708.09
2019-06-10T07:58:08.939Z,100701.03
2019-06-10T08:00:49.677Z,100699.52
2019-06-10T08:03:46.486Z,100702.70
2019-06-10T08:06:23.908Z,100698.11
2019-06-10T08:09:17.113Z,100690.87
2019-06-10T08:12:12.725Z,100693.52
2019-06-10T08:18:13.168Z,100679.05
2019-06-10T08:20:47.931Z,100671.63
2019-06-10T08:23:45.128Z,100654.21
2019-06-10T08:26:14.807Z,100654.21
2019-06-10T08:35:06.260Z,100639.70
2019-06-10T08:38:02.442Z,100643.22
2019-06-10T08:40:38.307Z,100638.69
2019-06-10T08:43:15.522Z,100642.02
2019-06-10T08:45:54.352Z,100639.48
2019-06-10T08:48:48.119Z,100644.29
2019-06-10T08:51:23.686Z,100649.46
2019-06-10T08:54:17.724Z,100651.45
2019-06-10T08:56:54.372Z,100653.08
2019-06-10T08:59:24.536Z,100652.78
2019-06-10T09:01:56.832Z,100641.42
2019-06-10T09:04:29.341Z,100637.84
2019-06-10T09:06:58.230Z,100635.12
2019-06-10T09:09:28.079Z,100642.46
2019-06-10T09:11:58.031Z,100627.87
2019-06-10T09:14:27.985Z,100628.33
2019-06-10T09:16:57.970Z,100611.85
2019-06-10T09:19:28.787Z,100605.97
2019-06-10T09:21:59.431Z,100606.61
2019-06-10T09:24:29.988Z,100606.61
2019-06-10T09:27:02.696Z,100606.23
2019-06-10T09:29:32.874Z,100608.87
2019-06-10T09:32:03.295Z,100606.11
2019-06-10T09:34:33.270Z,100600.10
2019-06-10T09:37:04.074Z,100598.39
2019-06-10T09:39:34.123Z,100598.39
2019-06-10T09:42:06.580Z,100608.30
2019-06-10T09:44:36.880Z,100607.90
2019-06-10T09:47:06.818Z,100610.53
2019-06-10T09:49:37.773Z,100604.47
2019-06-10T09:52:07.757Z,100601.55
2019-06-10T09:54:37.707Z,100601.55
2019-06-10T09:57:07.650Z,100591.05
2019-06-10T09:59:37.588Z,100591.83
2019-06-10T10:02:07.544Z,100592.92
2019-06-10T10:04:38.449Z,100585.09
2019-06-10T10:07:09.188Z,100570.80
2019-06-10T10:09:39.556Z,100573.03
2019-06-10T10:12:12.215Z,100572.23
2019-06-10T10:14:46.058Z,100575.69
2019-06-10T10:17:15.062Z,100575.75
2019-06-10T10:19:48.146Z,100573.95
2019-06-10T10:22:17.472Z,100577.20
2019-06-10T10:24:47.623Z,100563.62
2019-06-10T10:27:17.820Z,100562.84
2019-06-10T10:29:50.028Z,100553.27
2019-06-10T10:32:22.507Z,100553.83
2019-06-10T10:34:56.364Z,100553.83
2019-06-10T10:37:24.364Z,100558.19
2019-06-10T10:39:56.472Z,100546.34
2019-06-10T10:42:41.727Z,100540.98
2019-06-10T10:44:59.417Z,100541.02
2019-06-10T10:47:33.329Z,100541.17
2019-06-10T10:50:02.847Z,100543.93
2019-06-10T10:52:33.190Z,100548.13
2019-06-10T10:55:06.917Z,100548.13
2019-06-10T10:57:36.375Z,100537.38
2019-06-10T11:00:07.939Z,100543.31
2019-06-10T11:02:38.841Z,100541.47
2019-06-10T11:05:09.785Z,100536.41
2019-06-10T11:07:42.224Z,100529.86
2019-06-10T11:10:12.818Z,100516.52
2019-06-10T11:12:46.981Z,100511.04
2019-06-10T11:15:19.928Z,100508.53
2019-06-10T11:17:49.944Z,100508.53
2019-06-10T11:20:22.452Z,100509.88
2019-06-10T11:22:52.278Z,100504.45
2019-06-10T11:25:23.754Z,100497.38
2019-06-10T11:27:55.712Z,100489.27
2019-06-10T11:30:26.036Z,100484.42
2019-06-10T11:32:58.312Z,100484.42
2019-06-10T11:35:27.654Z,100481.04
2019-06-10T11:37:58.274Z,100479.30
2019-06-10T11:40:29.185Z,100482.19
2019-06-10T11:43:22.448Z,100473.30
2019-06-10T11:45:58.884Z,100469.94
2019-06-10T11:48:24.411Z,100472.50
2019-06-10T11:50:57.160Z,100468.88
2019-06-10T11:53:28.697Z,100462.61
2019-06-10T11:55:58.070Z,100459.88
2019-06-10T11:58:29.005Z,100457.32
2019-06-10T12:01:00.664Z,100452.14
2019-06-10T12:03:31.063Z,100452.66
2019-06-10T12:06:05.034Z,100452.66
2019-06-10T12:08:32.985Z,100454.00
2019-06-10T12:11:02.968Z,100445.48
2019-06-10T12:13:34.422Z,100446.09
2019-06-10T12:16:50.699Z,100441.34
2019-06-10T12:18:36.343Z,100434.17
2019-06-10T12:21:06.456Z,100432.55
2019-06-10T12:23:36.362Z,100425.34
2019-06-10T12:26:06.407Z,100412.58
2019-06-10T12:28:36.353Z,100413.86
2019-06-10T12:31:07.445Z,100410.94
2019-06-10T12:33:37.816Z,100410.41
2019-06-10T12:36:07.840Z,100405.52
2019-06-10T12:38:37.776Z,100402.09
2019-06-10T12:41:13.083Z,100403.73
2019-06-10T12:43:43.051Z,100402.48
2019-06-10T12:46:12.951Z,100397.74
2019-06-10T12:48:43.259Z,100397.06
2019-06-10T12:51:14.027Z,100400.86
2019-06-10T12:53:43.964Z,100404.14
2019-06-10T12:56:14.871Z,100400.84
2019-06-10T12:58:45.040Z,100407.80
2019-06-10T13:01:14.896Z,100407.63
2019-06-10T13:03:45.154Z,100402.58
2019-06-10T13:06:16.468Z,100394.92
2019-06-10T13:08:47.445Z,100390.30
2019-06-10T13:11:17.352Z,100390.14
2019-06-10T13:13:47.630Z,100388.14
2019-06-10T13:16:17.562Z,100390.92
2019-06-10T13:18:47.536Z,100378.86
2019-06-10T13:21:18.005Z,100380.82
2019-06-10T13:23:48.019Z,100382.09
2019-06-10T13:26:18.081Z,100367.69
2019-06-10T13:28:48.058Z,100362.73
2019-06-10T13:31:18.584Z,100358.91
2019-06-10T13:33:48.458Z,100355.60
2019-06-10T13:36:18.370Z,100355.55
2019-06-10T13:38:48.601Z,100355.98
2019-06-10T13:41:18.792Z,100362.20
2019-06-10T13:43:48.675Z,100361.98
2019-06-10T13:46:18.680Z,100369.77
2019-06-10T13:48:48.976Z,100365.86
2019-06-10T13:51:18.942Z,100366.73
2019-06-10T13:53:49.217Z,100356.11
2019-06-10T13:56:39.817Z,100348.16
2019-06-10T13:58:52.284Z,100348.03
2019-06-10T14:01:22.654Z,100342.41
2019-06-10T14:03:53.636Z,100344.28
2019-06-10T14:06:39.751Z,100334.98
2019-06-10T14:08:57.033Z,100337.50
2019-06-10T14:11:30.003Z,100331.14
2019-06-10T14:13:59.497Z,100328.91
2019-06-10T14:16:29.427Z,100327.17
2019-06-10T14:18:59.304Z,100331.67
2019-06-10T14:21:29.230Z,100328.59
2019-06-10T14:23:59.171Z,100331.31
2019-06-10T14:26:37.932Z,100338.78
2019-06-10T14:29:02.892Z,100339.70
2019-06-10T14:31:40.552Z,100342.80
2019-06-10T14:34:07.153Z,100332.41
2019-06-10T14:36:36.290Z,100328.98
2019-06-10T14:39:08.147Z,100336.60
2019-06-10T14:41:38.131Z,100344.78
2019-06-10T14:44:08.714Z,100349.55
2019-06-10T14:46:39.321Z,100340.12
2019-06-10T14:49:09.384Z,100347.98
2019-06-10T14:51:39.315Z,100349.55
2019-06-10T14:54:09.458Z,100352.46
2019-06-10T14:56:50.732Z,100354.70
2019-06-10T14:59:14.076Z,100352.00
2019-06-10T15:01:42.951Z,100354.39
2019-06-10T15:04:16.051Z,100350.66
2019-06-10T15:06:44.606Z,100354.39
2019-06-10T15:09:15.768Z,100350.66
2019-06-10T15:11:45.833Z,100347.97
2019-06-10T15:14:17.430Z,100341.75
2019-06-10T15:16:47.467Z,100330.76
2019-06-10T15:19:24.455Z,100314.59
2019-06-10T15:21:49.509Z,100298.95
2019-06-10T15:24:20.996Z,100300.08
2019-06-10T15:27:07.857Z,100288.57
2019-06-10T15:29:23.581Z,100289.91
2019-06-10T15:32:08.462Z,100282.96
2019-06-10T15:34:26.545Z,100274.58
2019-06-10T15:36:56.713Z,100280.79
2019-06-10T15:39:26.655Z,100265.14
2019-06-10T15:41:56.617Z,100267.89
2019-06-10T15:44:47.861Z,100260.81
2019-06-10T15:46:58.772Z,100264.20
2019-06-10T15:49:28.710Z,100266.30
2019-06-10T15:51:58.482Z,100260.03
2019-06-10T15:54:28.565Z,100263.64
2019-06-10T15:56:58.563Z,100267.73
2019-06-10T15:59:28.539Z,100272.84
2019-06-10T16:01:58.611Z,100270.66
2019-06-10T16:04:29.873Z,100273.49
2019-06-10T16:07:02.374Z,100275.45
2019-06-10T16:09:32.236Z,100281.86
2019-06-10T16:12:02.983Z,100298.59
2019-06-10T16:14:35.427Z,100301.84
2019-06-10T16:17:05.751Z,100303.70
2019-06-10T16:19:35.627Z,100307.16
2019-06-10T16:22:05.657Z,100312.99
2019-06-10T16:24:36.293Z,100319.80
2019-06-10T16:27:06.617Z,100314.50
2019-06-10T16:29:36.563Z,100305.86
2019-06-10T16:32:06.511Z,100312.39
2019-06-10T16:34:36.810Z,100311.87
2019-06-10T16:37:06.748Z,100311.32
2019-06-10T16:39:37.298Z,100302.63
2019-06-10T16:42:07.221Z,100313.29
2019-06-10T16:44:37.162Z,100309.16
2019-06-10T16:47:08.588Z,100310.12
2019-06-10T16:49:38.370Z,100304.20
2019-06-10T16:52:08.352Z,100298.98
2019-06-10T16:54:38.252Z,100296.29
2019-06-10T16:57:08.464Z,100286.55
2019-06-10T16:59:38.459Z,100279.42
2019-06-10T17:02:08.728Z,100284.16
2019-06-10T17:04:39.022Z,100281.29
2019-06-10T17:07:08.943Z,100281.73
2019-06-10T17:09:38.878Z,100273.25
2019-06-10T17:12:09.080Z,100279.02
2019-06-10T17:14:38.951Z,100279.16
2019-06-10T17:17:09.216Z,100288.35
2019-06-10T17:19:39.439Z,100310.98
2019-06-10T17:22:09.606Z,100309.73
2019-06-10T17:24:42.096Z,100305.58
2019-06-10T17:27:13.083Z,100309.17
2019-06-10T17:29:43.189Z,100306.41
2019-06-10T17:32:13.398Z,100313.19
2019-06-10T17:34:43.464Z,100314.19
2019-06-10T17:37:13.554Z,100314.09
2019-06-10T17:39:43.470Z,100312.48
2019-06-10T17:42:13.495Z,100308.47
2019-06-10T17:44:43.427Z,100313.12
2019-06-10T17:47:13.408Z,100308.27
2019-06-10T17:49:43.239Z,100309.72
2019-06-10T17:52:13.968Z,100311.37
2019-06-10T17:54:44.969Z,100303.21
2019-06-10T17:57:14.744Z,100310.08
2019-06-10T17:59:44.703Z,100302.63
2019-06-10T18:02:15.051Z,100306.87
2019-06-10T18:04:45.258Z,100318.25
2019-06-10T18:07:15.160Z,100326.76
2019-06-10T18:09:45.119Z,100304.63
2019-06-10T18:12:15.032Z,100321.70
2019-06-10T18:14:45.067Z,100336.61
2019-06-10T18:17:15.028Z,100328.42
2019-06-10T18:19:44.944Z,100335.86
2019-06-10T18:22:15.155Z,100343.19
2019-06-10T18:24:44.992Z,100347.70
2019-06-10T18:27:15.318Z,100345.03
2019-06-10T18:29:45.286Z,100342.95
2019-06-10T18:32:15.543Z,100341.81
2019-06-10T18:34:45.823Z,100364.02
2019-06-10T18:37:16.094Z,100363.50
2019-06-10T18:39:46.316Z,100350.99
2019-06-10T18:42:17.804Z,100359.77
2019-06-10T18:44:47.735Z,100364.70
2019-06-10T18:47:17.679Z,100371.50
2019-06-10T18:49:48.728Z,100366.88
2019-06-10T18:52:18.682Z,100362.22
2019-06-10T18:54:48.872Z,100371.30
2019-06-10T18:57:18.807Z,100381.52
2019-06-10T18:59:48.710Z,100385.75
2019-06-10T19:02:19.229Z,100383.77
2019-06-10T19:04:49.093Z,100383.86
2019-06-10T19:07:19.256Z,100399.56
2019-06-10T19:09:49.109Z,100406.47
2019-06-10T19:12:19.035Z,100406.30
2019-06-10T19:14:49.302Z,100411.86
2019-06-10T19:17:19.241Z,100396.63
2019-06-10T19:19:49.268Z,100401.62
2019-06-10T19:22:19.682Z,100401.62
2019-06-10T19:24:49.591Z,100401.19
2019-06-10T19:27:19.557Z,100399.37
2019-06-10T19:29:51.227Z,100407.81
2019-06-10T19:32:21.520Z,100414.82
2019-06-10T19:34:52.141Z,100414.82
2019-06-10T19:37:22.639Z,100435.86
2019-06-10T19:39:54.109Z,100435.86
2019-06-10T19:42:24.209Z,100434.90
2019-06-10T19:44:54.476Z,100430.66
2019-06-10T19:47:25.064Z,100435.66
2019-06-10T19:49:55.036Z,100438.34
2019-06-10T19:52:24.899Z,100439.82
2019-06-10T19:54:54.858Z,100441.09
2019-06-10T19:57:26.254Z,100440.39
2019-06-10T20:00:10.667Z,100435.54
2019-06-10T20:02:28.723Z,100437.77
2019-06-10T20:04:59.069Z,100434.34
2019-06-10T20:07:29.008Z,100429.70
2019-06-10T20:09:59.916Z,100439.36
2019-06-10T20:12:32.312Z,100443.24
2019-06-10T20:15:03.836Z,100443.83
2019-06-10T20:17:35.505Z,100442.87
2019-06-10T20:20:06.287Z,100452.80
2019-06-10T20:22:36.554Z,100445.78
2019-06-10T20:25:06.796Z,100445.78
2019-06-10T20:27:37.522Z,100443.94
2019-06-10T20:30:23.497Z,100451.09
2019-06-10T20:32:41.554Z,100450.90
2019-06-10T20:35:13.018Z,100444.66
2019-06-10T20:37:44.641Z,100448.36
2019-06-10T20:40:16.903Z,100444.53
2019-06-10T20:42:48.728Z,100452.10
2019-06-10T20:45:19.106Z,100451.13
2019-06-10T20:47:50.160Z,100453.16
2019-06-10T20:50:20.470Z,100448.83
2019-06-10T20:52:52.452Z,100458.02
2019-06-10T20:55:24.882Z,100461.59
2019-06-10T20:58:03.013Z,100468.47
2019-06-10T21:00:35.026Z,100472.08
2019-06-10T21:03:05.702Z,100470.55
2019-06-10T21:05:36.785Z,100460.03
2019-06-10T21:08:06.788Z,100463.72
2019-06-10T21:10:37.506Z,100461.69
2019-06-10T21:13:08.565Z,100467.69
2019-06-10T21:15:39.727Z,100460.30
2019-06-10T21:18:10.133Z,100469.53
2019-06-10T21:20:44.024Z,100470.05
2019-06-10T21:23:15.939Z,100463.03
2019-06-10T21:25:47.625Z,100460.86
2019-06-10T21:28:16.859Z,100461.69
2019-06-10T21:30:52.132Z,100452.55
2019-06-10T21:33:19.018Z,100450.89
2019-06-10T21:35:50.165Z,100447.42
2019-06-10T21:38:23.170Z,100441.93
2019-06-10T21:40:54.232Z,100435.48
2019-06-10T21:43:24.230Z,100443.19
2019-06-10T21:45:57.617Z,100443.87
2019-06-10T21:48:25.852Z,100447.89
2019-06-10T21:50:56.070Z,100436.61
2019-06-10T21:53:26.039Z,100436.80
2019-06-10T21:55:56.049Z,100439.66
2019-06-10T21:58:25.939Z,100433.80
2019-06-10T22:01:09.692Z,100430.62
2019-06-10T22:03:32.120Z,100430.62
2019-06-10T22:06:01.441Z,100432.14
2019-06-10T22:08:33.334Z,100438.00
2019-06-10T22:11:04.016Z,100434.34
2019-06-10T22:13:34.968Z,100436.70
2019-06-10T22:16:05.311Z,100426.50
2019-06-10T22:18:35.264Z,100432.17
2019-06-10T22:21:05.200Z,100431.02
2019-06-10T22:23:35.175Z,100442.77
2019-06-10T22:26:05.459Z,100448.81
2019-06-10T22:28:35.412Z,100457.19
2019-06-10T22:31:19.169Z,100457.23
2019-06-10T22:33:37.130Z,100470.60
2019-06-10T22:36:07.073Z,100476.27
2019-06-10T22:38:37.381Z,100483.80
2019-06-10T22:41:07.803Z,100490.33
2019-06-10T22:43:38.062Z,100495.83
2019-06-10T22:46:09.482Z,100496.33
2019-06-10T22:48:39.362Z,100493.98
2019-06-10T22:51:12.152Z,100495.64
2019-06-10T22:53:42.523Z,100492.94
2019-06-10T22:56:13.032Z,100496.95
2019-06-10T22:58:43.274Z,100496.44
2019-06-10T23:01:13.508Z,100493.44
2019-06-10T23:03:43.903Z,100502.48
2019-06-10T23:06:13.908Z,100499.66
2019-06-10T23:08:44.215Z,100501.68
2019-06-10T23:11:14.457Z,100492.36
2019-06-10T23:13:44.744Z,100492.53
2019-06-10T23:16:15.032Z,100492.93
2019-06-10T23:18:45.093Z,100497.13
2019-06-10T23:21:15.159Z,100505.97
2019-06-10T23:23:45.331Z,100506.62
2019-06-10T23:26:15.368Z,100510.96
2019-06-10T23:28:45.352Z,100511.77
2019-06-10T23:31:15.654Z,100506.33
2019-06-10T23:33:45.467Z,100518.52
2019-06-10T23:36:15.401Z,100518.19
2019-06-10T23:38:45.379Z,100522.55
2019-06-10T23:41:15.583Z,100527.94
2019-06-10T23:43:45.593Z,100531.61
2019-06-10T23:46:15.958Z,100526.27
2019-06-10T23:48:45.988Z,100522.32
2019-06-10T23:51:15.945Z,100516.32
2019-06-10T23:53:46.008Z,100513.65
2019-06-10T23:56:16.064Z,100521.31
2019-06-10T23:58:46.314Z,100524.28
